Date,TemperatureHighF,TemperatureAvgF,TemperatureLowF,DewpointHighF,DewpointAvgF,DewpointLowF,HumidityHigh,HumidityAvg,HumidityLow,PressureMaxIn,PressureMinIn,WindSpeedMaxMPH,WindSpeedAvgMPH,GustSpeedMaxMPH,PrecipitationSumIn
2014-1-1,48,36,28,29,26,-4,84,67,38,30.32,30.00,22,3,22,0.00
2014-1-2,37,28,14,34,24,9,92,83,70,30.33,29.81,41,7,41,0.14
2014-1-3,23,14,5,10,6,2,86,72,52,30.59,30.33,29,3,29,0.00
2014-1-4,45,29,17,25,16,10,76,60,36,30.33,30.10,31,5,38,0.00
2014-1-5,56,42,27,48,36,22,92,80,64,30.10,29.50,60,6,60,0.63
2014-1-6,27,4,-4,23,-3,-13,84,70,56,30.53,29.82,39,14,39,0.00
2014-1-7,15,4,-4,3,-4,-11,78,67,52,30.64,30.47,24,6,25,0.00
2014-1-8,32,22,9,22,13,3,80,68,54,30.56,30.47,20,3,20,0.00
2014-1-9,42,34,29,31,24,21,88,70,46,30.55,30.30,18,2,19,0.01
2014-1-10,55,47,35,50,43,31,94,88,82,30.31,29.73,28,2,30,0.01
2014-1-11,55,47,34,51,42,31,94,84,71,29.86,29.53,36,8,37,0.88
2014-1-12,52,40,31,36,32,29,94,77,51,30.11,29.86,14,4,18,0.00
2014-1-13,51,48,41,47,39,31,94,74,50,29.94,29.75,39,7,40,0.46
2014-1-14,52,42,32,45,35,30,94,77,50,29.97,29.78,27,5,28,0.08
2014-1-15,36,27,21,31,20,16,84,73,58,30.14,29.97,22,4,24,0.00
2014-1-16,34,26,17,30,20,13,90,79,58,30.11,29.81,27,4,28,0.00
2014-1-17,32,24,14,31,20,8,94,83,64,30.14,29.79,28,6,30,0.00
2014-1-18,32,23,13,22,15,7,86,72,58,30.13,29.82,24,5,25,0.00
2014-1-19,38,34,28,31,26,21,86,73,60,30.06,29.81,26,10,27,0.01
2014-1-20,50,41,34,33,29,25,78,63,50,29.92,29.80,26,7,27,0.00
2014-1-21,34,20,4,29,14,-3,94,77,58,30.24,29.75,30,6,36,0.00
2014-1-22,18,8,-5,12,1,-9,88,75,60,30.26,30.11,21,4,22,0.00
2014-1-23,19,9,0,15,0,-8,84,65,52,30.71,30.16,28,7,30,0.00
2014-1-24,23,10,-4,6,0,-8,84,65,43,30.73,29.99,34,7,36,0.00
2014-1-25,37,26,16,28,13,0,89,61,30,30.00,29.64,52,14,54,0.00
2014-1-26,51,32,10,34,18,0,77,56,39,30.00,29.62,38,6,39,0.00
2014-1-27,48,20,7,35,5,-6,76,52,36,30.46,29.65,42,9,44,0.00
2014-1-28,12,5,-1,-2,-6,-10,81,60,39,30.54,30.40,18,3,19,0.00
2014-1-29,24,11,-2,3,-1,-7,84,62,38,30.48,30.38,21,3,22,0.00
2014-1-30,37,23,10,9,4,0,68,46,23,30.37,30.01,22,4,24,0.00
2014-1-31,41,36,30,23,15,8,54,41,34,30.18,30.06,16,4,18,0.00
2014-2-1,63,50,38,44,31,22,71,48,33,30.08,29.85,34,5,36,0.00
2014-2-2,53,37,28,46,34,26,91,88,71,30.18,29.89,22,5,24,0.65
2014-2-3,36,27,18,26,23,16,91,84,65,30.36,30.08,20,3,21,0.12
2014-2-4,32,26,18,30,22,16,91,87,81,30.36,29.88,26,4,27,0.00
2014-2-5,33,28,23,31,25,20,92,88,81,30.40,29.73,15,1,16,0.00
2014-2-6,26,22,16,20,17,12,89,83,72,30.50,30.39,9,2,12,0.00
2014-2-7,23,14,6,13,8,1,87,77,59,30.53,30.39,10,2,12,0.00
2014-2-8,28,22,14,24,18,11,88,81,74,30.40,30.18,10,2,12,0.00
2014-2-9,31,28,24,27,24,22,91,85,73,30.26,30.10,20,3,21,0.00
2014-2-10,25,19,11,22,12,6,89,74,59,30.42,30.24,14,3,15,0.00
2014-2-11,29,14,3,13,6,-2,84,73,50,30.52,30.40,14,2,15,0.00
2014-2-12,37,20,5,20,11,1,85,71,50,30.42,29.95,10,2,12,0.11
2014-2-13,42,29,16,21,16,10,82,60,29,29.95,29.65,20,4,21,0.27
2014-2-14,44,34,26,32,27,20,91,74,56,29.80,29.62,24,5,25,0.43
2014-2-15,29,23,18,23,17,14,89,78,63,30.18,29.32,14,4,21,0.00
2014-2-16,35,30,25,26,24,-5,87,77,68,30.27,29.24,22,5,24,0.01
2014-2-17,42,31,22,39,25,16,92,79,67,30.28,29.70,33,8,34,0.37
2014-2-18,58,45,34,33,30,27,86,58,35,30.15,29.81,15,5,21,0.00
2014-2-19,56,50,42,48,38,31,92,66,43,30.04,29.73,32,5,33,0.06
2014-2-20,70,58,41,57,47,31,85,69,54,29.98,29.50,56,8,57,0.40
2014-2-21,53,43,34,48,26,12,89,54,23,30.00,29.57,34,11,40,0.09
2014-2-22,62,47,32,31,23,19,60,41,21,30.09,29.90,21,4,25,0.00
2014-2-23,47,37,27,35,30,18,90,77,55,30.21,29.28,26,6,27,0.07
2014-2-24,38,28,22,19,15,11,74,58,34,30.35,30.17,24,3,25,0.00
2014-2-25,37,30,25,22,18,13,84,61,46,30.20,30.08,16,4,17,0.00
2014-2-26,26,21,15,21,8,0,85,57,38,30.19,29.91,32,6,32,0.00
2014-2-27,32,23,16,12,4,-7,68,47,19,30.13,29.85,32,8,32,0.00
2014-2-28,42,26,12,14,8,1,70,50,25,30.22,30.04,20,4,20,0.00
2014-3-1,56,44,29,36,30,14,73,56,43,30.15,30.03,18,2,18,0.00
2014-3-2,49,33,20,36,28,17,90,83,59,30.18,30.04,24,6,24,0.52
2014-3-3,24,17,10,17,10,3,87,75,58,30.41,30.16,26,8,29,0.00
2014-3-4,32,16,9,14,7,3,80,67,46,30.38,30.18,15,3,15,0.05
2014-3-6,47,39,31,32,28,25,78,65,52,30.10,30.03,8,1,8,0.00
2014-3-7,61,41,24,36,29,21,90,67,36,30.03,29.90,15,1,15,0.00
2014-3-8,59,45,29,39,33,26,90,67,41,30.19,29.96,24,5,24,0.00
2014-3-9,50,39,31,32,27,24,82,63,35,30.30,30.06,15,4,17,0.00
2014-3-10,65,49,35,42,35,24,82,60,37,30.06,29.76,30,8,31,0.00
2014-3-11,74,59,48,46,41,35,75,54,26,29.79,29.55,24,6,29,0.00
2014-3-12,62,45,30,55,38,19,87,75,60,30.01,29.24,33,10,41,0.17
2014-3-13,41,29,17,19,13,6,73,52,31,30.27,30.01,27,5,28,0.00
2014-3-14,61,48,32,34,27,18,61,45,31,30.18,29.85,56,13,57,0.00
2014-3-15,64,54,41,35,30,28,70,42,27,30.09,30.00,20,4,20,0.00
2014-3-16,45,35,26,31,26,19,84,70,52,30.04,29.90,34,12,35,0.03
2014-3-17,46,33,26,32,24,16,84,67,55,29.95,29.82,26,5,26,0.01
2014-3-18,52,43,33,43,36,26,85,76,68,29.99,29.84,10,2,14,0.00
2014-3-19,57,50,44,48,42,34,88,75,61,30.03,29.81,42,10,43,0.00
2014-3-20,56,44,31,35,29,26,80,57,35,30.16,30.03,26,6,26,0.00
2014-3-21,68,52,34,33,29,26,77,45,22,30.06,29.87,28,6,29,0.00
2014-3-22,57,51,40,36,32,28,66,49,34,30.16,29.86,18,6,18,0.00
2014-3-23,44,37,29,29,24,16,77,59,36,30.33,30.15,24,6,24,0.00
2014-3-24,44,32,20,27,17,13,83,56,32,30.36,30.09,18,3,18,0.00
2014-3-25,35,31,28,28,23,13,89,73,44,30.20,29.99,33,6,34,0.03
2014-3-26,43,30,17,20,14,10,78,52,31,30.38,30.20,12,3,15,0.00
2014-3-27,60,46,29,34,22,17,64,41,23,30.24,29.80,44,7,44,0.00
2014-3-28,66,57,49,55,48,34,89,73,40,30.03,29.79,39,8,40,0.22
2014-3-29,50,42,36,42,38,32,90,84,71,30.12,29.84,28,8,29,0.72
2014-3-30,58,42,31,33,30,27,85,63,33,30.23,30.12,20,5,20,0.00
2014-3-31,69,49,28,39,32,26,91,58,25,30.23,30.00,21,2,21,0.00
2014-4-1,77,64,51,48,39,32,80,41,24,30.06,29.93,39,8,40,0.26
2014-4-2,65,54,46,52,46,40,86,76,55,30.14,29.97,27,4,28,0.00
2014-4-3,70,59,53,60,55,49,92,86,69,29.98,29.73,30,4,31,0.80
2014-4-4,65,55,44,58,48,32,93,78,62,30.01,29.58,34,10,35,0.52
2014-4-5,55,44,38,34,30,27,77,57,40,30.19,30.01,24,6,29,0.15
2014-4-6,60,48,35,40,34,28,79,60,41,30.17,29.90,26,4,26,0.03
2014-4-7,66,54,45,59,47,37,91,79,59,29.90,29.34,46,7,47,0.13
2014-4-8,62,50,43,45,42,39,89,73,49,29.84,29.61,32,7,32,0.00
2014-4-9,62,52,41,42,37,31,85,60,32,30.07,29.84,24,4,24,0.00
2014-4-10,74,57,36,44,38,32,85,52,31,30.11,29.89,38,9,38,0.00
2014-4-11,72,65,54,54,47,41,79,53,40,30.06,29.96,33,8,34,0.00
2014-4-12,80,64,47,57,51,44,92,66,40,30.14,29.90,26,3,26,0.00
2014-4-13,82,72,62,56,50,43,67,50,26,29.98,29.74,38,9,41,0.00
2014-4-14,72,64,45,59,55,42,89,73,52,29.75,29.62,36,8,37,0.55
2014-4-15,45,36,31,42,28,19,91,73,45,30.26,29.74,27,7,28,0.18
2014-4-16,52,38,22,27,22,16,90,56,35,30.42,30.24,27,5,28,0.00
2014-4-17,69,52,36,40,33,25,78,50,28,30.38,30.25,27,3,28,0.00
2014-4-18,70,56,42,45,40,36,89,60,31,30.31,30.17,15,2,15,0.00
2014-4-19,72,56,44,46,39,0,85,56,27,30.26,30.16,18,4,21,0.00
2014-4-20,78,60,41,47,39,20,62,46,25,30.24,30.08,14,2,14,0.00
2014-4-21,77,63,45,51,33,-15,66,37,7,30.09,29.85,24,3,24,0.00
2014-4-22,71,63,50,56,44,30,69,52,27,29.94,29.77,30,6,31,0.01
2014-4-23,63,50,38,37,32,30,72,53,31,30.09,29.94,12,3,17,0.00
2014-4-24,70,56,42,45,39,34,72,54,35,30.07,29.75,22,5,23,0.00
2014-4-25,68,60,49,55,32,-44,75,42,1,29.93,29.62,28,5,29,0.77
2014-4-26,73,52,42,47,37,9,76,57,25,29.96,29.92,26,3,26,0.00
2014-4-28,66,63,59,63,60,58,97,91,78,29.77,29.59,34,4,35,1.72
2014-4-29,75,63,52,61,54,47,98,78,40,29.91,29.52,36,5,37,0.86
2014-4-30,68,58,52,56,50,44,98,78,48,29.91,29.75,27,4,28,0.23
2014-5-1,58,53,44,44,39,33,85,62,41,29.94,29.89,32,8,32,0.00
2014-5-2,58,52,42,43,40,38,86,66,52,29.95,29.88,22,4,23,0.00
2014-5-3,70,56,38,46,41,37,98,62,31,29.98,29.85,42,6,43,0.00
2014-5-4,79,64,48,54,47,38,84,56,37,29.98,29.88,21,3,21,0.00
2014-5-5,86,67,50,56,46,35,63,49,28,29.98,29.73,33,6,34,0.00
2014-5-6,82,70,51,63,55,46,83,60,49,29.91,29.81,14,2,14,0.00
2014-5-7,85,71,54,62,56,51,95,64,31,29.99,29.88,30,5,31,0.00
2014-5-8,86,75,65,64,57,49,75,55,30,30.08,29.95,26,5,26,0.00
2014-5-9,75,68,60,68,61,54,99,78,54,30.00,29.85,51,4,52,0.54
2014-5-10,74,64,59,65,62,56,99,93,62,30.01,29.90,20,5,23,0.69
2014-5-11,83,67,55,71,62,55,100,86,59,30.11,29.96,16,1,19,0.00
2014-5-12,87,77,66,71,66,63,96,72,47,30.08,29.97,25,4,25,0.00
2014-5-13,86,72,63,72,65,60,95,82,45,30.06,29.96,22,2,43,0.54
2014-5-14,79,69,62,69,65,61,99,88,67,30.06,29.83,28,2,28,1.29
2014-5-15,66,59,46,64,56,45,97,90,68,30.07,29.73,32,6,33,0.65
2014-5-16,60,47,41,48,43,32,99,89,37,30.10,29.98,30,2,31,0.03
2014-5-17,61,49,38,43,38,31,97,71,34,30.26,30.08,22,2,22,0.00
2014-5-18,68,48,36,46,40,35,97,79,35,30.30,30.21,9,1,12,0.00
2014-5-19,75,58,40,49,43,39,97,63,33,30.30,30.10,10,1,12,0.00
2014-5-20,83,62,54,62,52,47,82,71,41,30.13,29.96,32,3,33,0.00
2014-5-21,83,69,0,68,59,0,94,71,59,30.03,29.89,35,6,36,1.20
2014-5-22,84,67,61,69,62,56,96,85,48,30.06,29.93,32,4,33,0.25
2014-5-23,77,67,57,56,52,46,86,62,39,30.12,30.02,17,2,18,0.00
2014-5-24,77,58,49,58,52,46,97,83,37,30.20,30.09,14,0,15,0.00
2014-5-25,80,66,52,59,54,49,97,71,36,30.16,30.06,14,1,15,0.00
2014-5-26,88,72,56,69,62,54,97,73,41,30.13,29.99,19,2,19,0.00
2014-5-27,88,78,68,68,66,63,89,69,44,30.03,29.91,19,4,19,0.00
2014-5-28,87,70,62,71,64,60,94,80,46,29.99,29.93,19,1,19,0.01
2014-5-29,84,71,65,70,65,62,93,83,55,30.05,29.96,10,0,10,0.00
2014-5-30,85,74,64,72,65,56,96,75,50,30.09,30.00,16,2,16,0.00
2014-5-31,85,72,56,59,55,50,91,58,31,30.16,30.04,23,4,24,0.00
2014-6-1,87,72,57,73,63,54,91,74,53,30.12,30.01,19,3,19,0.00
2014-6-2,82,76,70,69,64,61,83,69,59,30.12,29.98,20,6,24,0.00
2014-6-3,86,74,71,70,67,65,87,79,54,30.02,29.90,20,6,24,0.00
2014-6-4,85,75,68,73,69,66,95,82,62,29.91,29.67,25,6,30,0.27
2014-6-5,79,69,62,68,59,54,93,71,44,29.92,29.73,20,3,21,0.00
2014-6-6,82,70,55,59,55,49,95,64,34,30.00,29.91,13,2,13,0.00
2014-6-7,85,71,53,59,52,47,93,57,29,30.02,29.80,16,2,16,0.00
2014-6-8,73,68,59,65,61,55,95,78,56,29.96,29.73,29,5,30,0.00
2014-6-9,76,65,56,62,58,55,96,79,55,29.97,29.87,13,1,13,0.00
2014-6-10,84,67,61,68,61,58,95,83,52,29.90,29.76,22,2,31,1.27
2014-6-11,80,69,64,68,64,63,95,86,58,29.80,29.71,20,3,21,0.03
2014-6-12,81,71,64,65,63,58,96,76,48,29.87,29.77,20,2,21,0.00
2014-6-13,78,68,59,62,58,49,94,73,38,30.00,29.82,20,2,21,0.00
2014-6-14,78,63,46,52,49,43,94,63,33,30.12,30.00,13,2,13,0.00
2014-6-15,88,64,51,67,56,49,96,77,46,30.10,29.97,23,2,24,0.00
2014-6-16,90,78,64,71,66,62,94,69,45,30.14,30.03,19,3,19,0.00
2014-6-17,90,80,66,71,67,63,93,68,47,30.11,29.97,25,5,25,0.00
2014-6-18,91,81,69,72,69,66,94,68,45,30.10,29.97,17,4,19,0.00
2014-6-19,91,81,69,73,69,62,94,69,48,30.08,29.98,32,4,33,1.64
2014-6-20,88,75,67,75,69,65,97,84,54,30.03,29.89,54,3,55,0.36
2014-6-21,87,76,68,73,68,64,97,77,48,29.95,29.84,14,2,15,0.00
2014-6-22,90,77,64,70,66,63,96,71,43,29.93,29.81,19,2,19,0.00
2014-6-23,93,79,67,70,66,63,95,67,39,29.94,29.84,33,3,34,0.00
2014-6-24,86,77,70,72,68,65,93,75,56,29.96,29.82,20,3,21,0.53
2014-6-25,86,76,70,72,69,66,94,79,53,29.98,29.86,19,3,19,0.03
2014-6-26,89,78,66,70,66,57,95,70,38,30.02,29.92,10,1,10,0.00
2014-6-27,90,77,66,73,68,61,95,76,39,30.06,29.98,22,1,22,0.42
2014-6-28,85,75,68,73,69,66,95,83,58,30.12,30.03,17,2,18,0.08
2014-6-29,85,77,70,73,69,68,93,79,60,30.11,29.99,26,4,27,0.01
2014-6-30,89,78,69,76,71,67,94,80,61,30.01,29.82,22,3,22,0.00
2014-7-1,91,79,70,75,73,67,92,82,53,29.88,29.73,33,4,36,0.12
2014-7-2,86,74,68,69,66,62,94,77,48,29.96,29.82,23,3,24,0.00
2014-7-3,75,69,60,66,59,56,89,71,53,30.14,29.96,20,3,21,0.00
2014-7-4,80,67,51,57,51,45,96,62,30,30.27,30.14,20,2,21,0.00
2014-7-5,84,68,52,57,52,47,96,61,31,30.30,30.11,19,2,19,0.00
2014-7-6,86,74,59,64,59,54,91,62,39,30.11,29.92,28,5,28,0.00
2014-7-7,89,77,67,71,64,61,90,66,47,29.94,29.79,29,6,30,0.16
2014-7-8,86,78,69,71,66,63,87,69,49,29.87,29.77,35,7,36,0.00
2014-7-9,86,77,67,68,62,54,95,64,35,29.99,29.86,17,3,18,0.00
2014-7-10,86,74,63,65,61,56,94,67,37,30.11,29.99,16,2,16,0.00
2014-7-11,88,75,60,65,61,57,92,65,40,30.18,30.08,13,1,13,0.00
2014-7-12,88,76,62,69,64,60,95,70,45,30.16,30.02,16,2,16,0.00
2014-7-13,92,81,74,72,69,66,87,69,47,30.03,29.86,30,5,31,0.00
2014-7-14,85,75,68,72,69,62,94,82,58,29.95,29.80,22,4,22,0.31
2014-7-15,76,70,60,65,58,49,92,68,39,29.95,29.82,25,4,25,0.00
2014-7-16,76,64,51,56,53,50,96,70,43,30.02,29.94,14,2,15,0.00
2014-7-17,79,66,52,57,52,46,96,66,34,30.12,30.02,14,1,15,0.00
2014-7-18,70,60,56,62,55,52,94,84,63,30.14,30.09,10,0,10,0.32
2014-7-19,73,68,63,67,64,61,95,89,79,30.10,29.99,13,1,13,0.01
2014-7-20,84,73,67,71,67,65,96,84,59,30.04,29.97,12,1,12,0.03
2014-7-21,90,70,65,71,66,63,97,88,43,30.10,30.00,10,0,10,0.00
2014-7-22,93,80,66,73,69,65,96,72,42,30.09,29.97,14,1,15,0.00
2014-7-23,87,78,70,73,70,68,94,77,57,30.04,29.89,16,2,16,0.02
2014-7-24,78,70,63,70,60,53,90,70,44,30.04,29.91,22,5,22,0.00
2014-7-25,83,69,54,60,56,52,96,67,39,30.11,29.94,12,1,12,0.00
2014-7-26,89,70,63,70,62,59,90,76,49,30.00,29.81,49,2,50,0.02
2014-7-27,87,75,68,78,68,61,94,81,56,29.94,29.68,29,5,40,1.10
2014-7-28,75,68,62,62,59,56,84,75,59,29.99,29.79,17,3,18,0.00
2014-7-29,75,63,51,57,53,48,91,71,45,30.07,29.98,19,2,19,0.00
2014-7-30,81,63,56,60,56,54,94,81,42,30.09,30.01,19,1,19,0.00
2014-7-31,85,70,55,64,57,52,96,68,34,30.09,30.03,14,1,15,0.00
2014-8-1,86,72,57,65,59,54,96,68,36,30.09,29.99,10,1,12,0.00
2014-8-2,83,70,61,70,63,59,95,80,52,30.08,30.01,16,1,21,0.35
2014-8-3,86,70,55,66,60,54,97,74,38,30.14,30.04,9,1,13,0.01
2014-8-4,86,73,59,66,62,58,96,71,42,30.12,30.01,12,1,12,0.00
2014-8-5,86,74,61,66,63,57,96,71,38,30.07,29.97,16,1,16,0.00
2014-8-6,86,73,64,69,66,62,96,80,51,30.00,29.92,19,1,19,0.00
2014-8-7,83,73,65,65,62,58,92,70,48,30.06,29.96,14,2,19,0.00
2014-8-8,72,69,66,69,64,58,93,85,70,30.03,29.95,16,2,16,0.14
2014-8-9,80,73,69,73,69,67,95,89,76,30.00,29.91,14,2,15,0.19
2014-8-10,84,75,71,75,71,69,95,88,69,29.97,29.88,10,1,10,0.38
2014-8-11,85,75,69,74,70,68,96,87,65,29.91,29.77,22,3,22,0.01
2014-8-12,79,72,65,69,64,57,96,77,50,29.94,29.80,28,5,28,0.00
2014-8-13,80,68,59,59,57,54,91,69,41,30.05,29.94,16,3,19,0.00
2014-8-14,82,69,56,65,60,55,96,77,49,30.05,29.94,20,2,21,0.00
2014-8-15,82,68,57,64,54,42,96,67,30,30.05,29.97,14,1,15,0.01
2014-8-16,83,69,54,69,60,52,95,74,53,30.02,29.95,16,2,16,0.00
2014-8-17,75,71,68,71,68,65,95,91,82,29.98,29.85,13,1,13,0.47
2014-8-18,81,75,70,72,70,69,96,87,70,29.85,29.77,10,2,12,0.03
2014-8-19,87,73,68,72,69,67,97,88,53,29.87,29.77,13,1,16,0.00
2014-8-20,88,76,67,73,69,64,92,81,55,30.02,29.81,23,2,24,0.24
2014-8-21,87,77,68,76,71,66,94,82,62,30.05,29.95,12,2,15,0.14
2014-8-22,90,78,72,77,72,69,94,83,64,30.01,29.89,30,3,31,0.59
2014-8-23,91,77,68,75,71,67,97,84,56,30.00,29.87,19,1,19,0.68
2014-8-24,91,79,71,76,72,69,96,80,52,30.00,29.88,14,1,15,0.10
2014-8-25,89,77,69,74,70,67,96,81,55,30.04,29.97,12,1,12,0.00
2014-8-26,90,78,67,71,68,64,96,74,48,30.12,30.01,10,1,10,0.00
2014-8-27,92,77,67,75,69,65,96,78,52,30.08,29.97,39,1,40,1.07
2014-8-28,87,76,68,74,70,67,97,82,57,30.04,29.97,12,1,12,0.01
2014-8-29,92,78,67,74,67,63,88,70,40,30.05,29.94,16,2,16,0.00
2014-8-30,89,77,68,71,68,65,94,76,48,30.04,29.97,19,2,19,0.06
2014-8-31,76,73,71,72,70,69,95,92,83,30.04,29.96,16,3,16,0.41
2014-9-1,85,78,73,74,72,71,94,83,64,30.00,29.90,29,6,31,0.00
2014-9-2,85,77,70,73,70,66,96,80,65,30.01,29.86,17,5,21,0.40
2014-9-3,86,74,66,71,68,65,97,82,53,30.06,29.97,14,1,15,0.02
2014-9-4,91,78,65,74,69,64,97,77,46,30.09,29.99,10,1,12,0.00
2014-9-5,91,80,69,74,70,67,96,75,47,30.12,29.95,16,2,16,0.00
2014-9-6,86,76,66,73,68,61,92,78,56,30.09,29.95,22,3,22,0.00
2014-9-7,81,66,0,61,57,0,91,76,29,30.16,30.05,23,4,24,0.00
2014-9-8,83,66,54,65,57,51,92,75,48,30.10,29.99,12,1,12,0.00
2014-9-9,85,70,56,67,62,55,97,78,44,30.09,29.94,17,1,18,0.00
2014-9-10,84,75,64,71,68,62,95,80,66,29.97,29.78,30,5,31,0.00
2014-9-11,78,68,60,71,66,57,95,91,77,30.11,29.82,26,3,27,3.02
2014-9-12,68,61,56,58,56,54,94,83,67,30.17,30.08,14,3,16,0.00
2014-9-13,67,60,49,57,52,47,93,76,49,30.29,30.09,17,3,21,0.00
2014-9-14,74,57,44,53,48,42,96,75,38,30.31,30.17,14,1,15,0.00
2014-9-15,76,60,46,59,52,45,97,79,39,30.21,30.02,14,1,16,0.26
2014-9-16,69,61,50,60,56,49,96,86,64,30.13,30.05,22,2,22,0.01
2014-9-17,72,57,44,56,50,43,97,81,51,30.09,29.95,9,1,10,0.01
2014-9-18,74,61,52,55,52,49,95,74,44,30.09,29.99,19,2,19,0.00
2014-9-19,78,63,51,58,52,47,92,71,45,30.14,30.04,16,2,16,0.00
2014-9-20,82,70,56,66,62,54,96,78,56,30.10,29.92,22,3,24,0.00
2014-9-21,80,72,58,68,59,45,88,68,32,30.03,29.82,33,6,34,0.00
2014-9-22,68,56,47,55,47,43,94,72,43,30.26,30.03,16,2,16,0.01
2014-9-23,72,49,40,49,43,39,96,84,34,30.34,30.25,16,1,16,0.00
2014-9-24,79,59,43,64,49,41,96,75,35,30.35,30.25,13,1,13,0.00
2014-9-25,81,63,46,62,54,45,96,76,42,30.30,30.17,10,1,10,0.00
2014-9-26,82,66,52,60,55,49,97,72,33,30.22,30.14,14,1,15,0.00
2014-9-27,84,68,54,63,58,52,96,74,43,30.19,30.09,14,1,15,0.00
2014-9-28,85,69,57,65,59,55,95,75,43,30.14,30.02,12,1,12,0.00
2014-9-29,84,71,56,63,58,50,95,67,32,30.03,29.89,14,1,15,0.00
2014-9-30,84,66,49,68,55,48,97,73,37,29.94,29.85,14,1,15,0.00